createdAt,value
2018-12-06T00:01:19.662Z,15.60
2018-12-06T00:03:47.540Z,16.07
2018-12-06T00:06:15.351Z,18.20
2018-12-06T00:08:43.345Z,21.37
2018-12-06T00:11:11.134Z,17.43
2018-12-06T00:13:38.967Z,15.57
2018-12-06T00:16:06.857Z,16.73
2018-12-06T00:18:34.694Z,17.63
2018-12-06T00:21:02.543Z,16.90
2018-12-06T00:23:30.400Z,14.00
2018-12-06T00:25:58.236Z,14.13
2018-12-06T00:28:26.135Z,14.63
2018-12-06T00:30:53.986Z,15.17
2018-12-06T00:33:21.815Z,15.77
2018-12-06T00:35:49.800Z,18.50
2018-12-06T00:38:17.680Z,16.97
2018-12-06T00:40:45.571Z,16.50
2018-12-06T00:43:13.447Z,15.33
2018-12-06T00:45:41.319Z,14.60
2018-12-06T00:48:09.163Z,14.90
2018-12-06T00:50:36.997Z,19.93
2018-12-06T00:53:04.885Z,17.83
2018-12-06T00:55:32.732Z,20.23
2018-12-06T00:58:00.611Z,19.77
2018-12-06T01:00:28.542Z,14.20
2018-12-06T01:02:56.376Z,15.33
2018-12-06T01:05:24.247Z,16.77
2018-12-06T01:07:52.121Z,16.00
2018-12-06T01:10:19.943Z,15.10
2018-12-06T01:12:47.830Z,16.67
2018-12-06T01:15:15.737Z,15.67
2018-12-06T01:17:43.571Z,14.93
2018-12-06T01:20:11.443Z,17.20
2018-12-06T01:22:39.308Z,15.03
2018-12-06T01:25:07.422Z,13.97
2018-12-06T01:27:35.311Z,19.60
2018-12-06T01:30:03.356Z,15.40
2018-12-06T01:32:31.270Z,16.60
2018-12-06T01:34:59.101Z,16.03
2018-12-06T01:37:27.008Z,16.30
2018-12-06T01:39:54.894Z,15.97
2018-12-06T01:42:22.877Z,17.77
2018-12-06T01:44:50.740Z,15.17
2018-12-06T01:47:18.600Z,16.43
2018-12-06T01:49:46.459Z,18.60
2018-12-06T01:52:14.343Z,18.83
2018-12-06T01:54:42.212Z,18.37
2018-12-06T01:57:10.075Z,18.40
2018-12-06T01:59:38.070Z,16.00
2018-12-06T02:02:06.094Z,17.30
2018-12-06T02:04:34.098Z,17.90
2018-12-06T02:07:01.933Z,20.83
2018-12-06T02:09:29.824Z,18.97
2018-12-06T02:11:57.703Z,17.67
2018-12-06T02:14:25.584Z,15.53
2018-12-06T02:16:53.482Z,19.43
2018-12-06T02:19:21.387Z,17.30
2018-12-06T02:21:49.375Z,18.90
2018-12-06T02:24:17.254Z,18.33
2018-12-06T02:26:45.150Z,18.50
2018-12-06T02:29:13.027Z,17.43
2018-12-06T02:31:41.028Z,20.60
2018-12-06T02:34:08.975Z,19.30
2018-12-06T02:36:36.866Z,23.43
2018-12-06T02:39:07.279Z,20.03
2018-12-06T02:41:35.176Z,18.80
2018-12-06T02:44:03.117Z,19.33
2018-12-06T02:46:31.069Z,22.10
2018-12-06T02:48:58.936Z,20.03
2018-12-06T02:51:26.964Z,20.70
2018-12-06T02:53:54.832Z,20.27
2018-12-06T02:56:22.697Z,18.63
2018-12-06T02:58:50.541Z,18.63
2018-12-06T03:01:18.392Z,20.03
2018-12-06T03:03:46.365Z,17.50
2018-12-06T03:06:14.223Z,20.33
2018-12-06T03:08:42.123Z,23.93
2018-12-06T03:11:09.977Z,18.60
2018-12-06T03:13:37.839Z,20.03
2018-12-06T03:16:05.886Z,19.93
2018-12-06T03:18:33.793Z,21.07
2018-12-06T03:21:01.649Z,19.33
2018-12-06T03:23:29.556Z,20.03
2018-12-06T03:25:57.470Z,25.17
2018-12-06T03:28:25.359Z,20.90
2018-12-06T03:30:53.313Z,18.87
2018-12-06T03:33:21.216Z,19.77
2018-12-06T03:35:49.150Z,20.63
2018-12-06T03:38:17.005Z,21.57
2018-12-06T03:40:44.912Z,24.33
2018-12-06T03:43:12.944Z,19.33
2018-12-06T03:45:40.781Z,23.73
2018-12-06T03:48:08.630Z,22.10
2018-12-06T03:50:36.518Z,20.93
2018-12-06T03:53:04.415Z,23.67
2018-12-06T03:55:32.247Z,20.50
2018-12-06T03:58:00.159Z,24.87
2018-12-06T04:00:28.050Z,21.63
2018-12-06T04:02:55.978Z,23.33
2018-12-06T04:05:23.896Z,22.70
2018-12-06T04:07:51.726Z,22.67
2018-12-06T04:10:19.626Z,20.23
2018-12-06T04:12:47.639Z,21.73
2018-12-06T04:15:15.528Z,22.60
2018-12-06T04:17:43.379Z,21.03
2018-12-06T04:20:11.299Z,22.83
2018-12-06T04:22:39.304Z,21.57
2018-12-06T04:25:07.147Z,22.67
2018-12-06T04:27:35.025Z,22.87
2018-12-06T04:30:03.224Z,22.73
2018-12-06T04:32:31.088Z,23.50
2018-12-06T04:34:58.985Z,21.47
2018-12-06T04:37:26.852Z,24.47
2018-12-06T04:39:54.766Z,20.47
2018-12-06T04:42:22.665Z,21.47
2018-12-06T04:44:50.518Z,24.00
2018-12-06T04:47:18.388Z,21.77
2018-12-06T04:49:46.391Z,22.97
2018-12-06T04:52:14.301Z,23.10
2018-12-06T04:54:42.201Z,21.17
2018-12-06T04:57:10.071Z,21.97
2018-12-06T04:59:37.980Z,24.83
2018-12-06T05:02:05.999Z,22.13
2018-12-06T05:04:34.035Z,22.73
2018-12-06T05:07:01.931Z,21.50
2018-12-06T05:09:30.054Z,23.20
2018-12-06T05:11:57.904Z,24.77
2018-12-06T05:14:25.760Z,22.50
2018-12-06T05:16:53.664Z,21.67
2018-12-06T05:19:21.687Z,19.53
2018-12-06T05:21:49.560Z,23.20
2018-12-06T05:24:17.465Z,21.60
2018-12-06T05:26:45.616Z,22.57
2018-12-06T05:29:13.780Z,20.73
2018-12-06T05:31:41.697Z,24.50
2018-12-06T05:34:09.655Z,21.60
2018-12-06T05:36:37.521Z,21.00
2018-12-06T05:39:06.916Z,20.00
2018-12-06T05:41:34.781Z,21.67
2018-12-06T05:44:02.678Z,24.93
2018-12-06T05:46:30.580Z,20.27
2018-12-06T05:48:58.397Z,20.07
2018-12-06T05:51:26.279Z,27.50
2018-12-06T05:53:54.124Z,22.23
2018-12-06T05:56:22.049Z,20.60
2018-12-06T05:58:50.021Z,21.73
2018-12-06T06:01:17.874Z,23.20
2018-12-06T06:03:45.725Z,22.23
2018-12-06T06:06:13.689Z,21.67
2018-12-06T06:08:41.557Z,20.43
2018-12-06T06:11:09.405Z,19.93
2018-12-06T06:13:37.373Z,21.43
2018-12-06T06:16:05.256Z,20.40
2018-12-06T06:18:33.240Z,24.53
2018-12-06T06:21:01.123Z,25.40
2018-12-06T06:23:28.970Z,18.83
2018-12-06T06:25:56.838Z,19.07
2018-12-06T06:28:24.726Z,22.10
2018-12-06T06:30:52.649Z,22.67
2018-12-06T06:33:20.679Z,19.50
2018-12-06T06:35:48.548Z,27.10
2018-12-06T06:38:16.455Z,21.00
2018-12-06T06:40:44.423Z,21.07
2018-12-06T06:43:12.412Z,19.90
2018-12-06T06:45:40.295Z,19.43
2018-12-06T06:48:08.194Z,19.97
2018-12-06T06:50:36.115Z,21.13
2018-12-06T06:53:03.977Z,21.90
2018-12-06T06:55:31.880Z,18.97
2018-12-06T06:57:59.738Z,25.33
2018-12-06T07:00:27.609Z,17.80
2018-12-06T07:02:55.498Z,21.90
2018-12-06T07:05:23.533Z,23.93
2018-12-06T07:07:51.368Z,21.40
2018-12-06T07:10:19.202Z,24.33
2018-12-06T07:12:47.060Z,22.23
2018-12-06T07:15:15.095Z,20.67
2018-12-06T07:17:42.994Z,22.13
2018-12-06T07:20:10.863Z,25.43
2018-12-06T07:22:38.806Z,24.17
2018-12-06T07:25:06.869Z,27.87
2018-12-06T07:27:34.748Z,26.10
2018-12-06T07:30:02.835Z,24.27
2018-12-06T07:32:30.674Z,21.67
2018-12-06T07:34:58.557Z,26.20
2018-12-06T07:37:26.476Z,21.53
2018-12-06T07:39:54.350Z,25.23
2018-12-06T07:42:39.333Z,25.70
2018-12-06T07:45:07.522Z,22.17
2018-12-06T07:47:35.387Z,23.23
2018-12-06T07:50:03.995Z,22.30
2018-12-06T07:52:31.833Z,21.27
2018-12-06T07:54:59.810Z,22.17
2018-12-06T07:57:28.903Z,26.10
2018-12-06T07:59:57.811Z,23.33
2018-12-06T08:02:25.751Z,25.80
2018-12-06T08:04:53.855Z,24.30
2018-12-06T08:07:21.789Z,24.57
2018-12-06T08:09:49.650Z,24.17
2018-12-06T08:12:17.500Z,20.83
2018-12-06T08:14:45.361Z,26.07
2018-12-06T08:17:13.258Z,22.53
2018-12-06T08:19:41.160Z,25.03
2018-12-06T08:22:09.144Z,22.70
2018-12-06T08:24:36.983Z,23.73
2018-12-06T08:27:04.846Z,20.17
2018-12-06T08:29:32.738Z,22.97
2018-12-06T08:32:00.585Z,23.33
2018-12-06T08:34:28.454Z,22.93
2018-12-06T08:36:56.322Z,23.17
2018-12-06T08:39:24.304Z,19.93
2018-12-06T08:41:52.208Z,24.53
2018-12-06T08:44:21.513Z,21.13
2018-12-06T08:46:49.700Z,21.73
2018-12-06T08:49:17.548Z,20.57
2018-12-06T08:51:45.422Z,24.97
2018-12-06T08:54:13.284Z,21.47
2018-12-06T08:56:41.191Z,21.17
2018-12-06T08:59:09.102Z,21.87
2018-12-06T09:01:36.955Z,21.57
2018-12-06T09:04:04.872Z,21.77
2018-12-06T09:06:32.800Z,21.83
2018-12-06T09:09:00.739Z,22.80
2018-12-06T09:11:28.591Z,21.37
2018-12-06T09:13:56.594Z,19.20
2018-12-06T09:16:24.465Z,19.13
2018-12-06T09:18:52.316Z,22.67
2018-12-06T09:21:20.195Z,21.03
2018-12-06T09:23:48.021Z,19.10
2018-12-06T09:26:15.930Z,21.33
2018-12-06T09:28:43.843Z,19.30
2018-12-06T09:31:11.747Z,18.90
2018-12-06T09:33:51.007Z,18.80
2018-12-06T09:36:18.847Z,20.90
2018-12-06T09:38:47.043Z,18.87
2018-12-06T09:41:18.142Z,19.07
2018-12-06T09:43:46.256Z,16.43
2018-12-06T09:46:14.121Z,17.57
2018-12-06T09:48:42.070Z,15.53
2018-12-06T09:51:10.088Z,17.37
2018-12-06T09:53:37.920Z,18.97
2018-12-06T09:56:05.959Z,17.53
2018-12-06T09:58:33.950Z,18.23
2018-12-06T10:01:01.935Z,20.17
2018-12-06T10:03:29.795Z,19.00
2018-12-06T10:05:57.768Z,18.37
2018-12-06T10:08:25.656Z,19.27
2018-12-06T10:10:53.529Z,18.63
2018-12-06T10:13:21.423Z,19.53
2018-12-06T10:15:49.360Z,18.10
2018-12-06T10:18:17.200Z,18.80
2018-12-06T10:20:45.192Z,17.87
2018-12-06T10:23:13.067Z,19.00
2018-12-06T10:25:40.940Z,20.90
2018-12-06T10:28:08.861Z,18.47
2018-12-06T10:30:36.683Z,20.83
2018-12-06T10:33:04.639Z,26.13
2018-12-06T10:35:32.569Z,25.13
2018-12-06T10:38:00.467Z,24.20
2018-12-06T10:40:28.328Z,23.70
2018-12-06T10:42:56.264Z,25.13
2018-12-06T10:45:24.146Z,25.33
2018-12-06T10:47:52.110Z,25.73
2018-12-06T10:50:20.045Z,27.87
2018-12-06T10:52:47.900Z,23.13
2018-12-06T10:55:15.758Z,23.37
2018-12-06T10:57:43.593Z,23.93
2018-12-06T11:00:15.993Z,25.87
2018-12-06T11:02:47.951Z,26.27
2018-12-06T11:05:16.775Z,23.30
2018-12-06T11:07:44.694Z,22.70
2018-12-06T11:10:12.599Z,20.47
2018-12-06T11:12:40.516Z,23.30
2018-12-06T11:15:08.410Z,23.93
2018-12-06T11:17:36.319Z,28.20
2018-12-06T11:20:05.116Z,23.27
2018-12-06T11:22:33.020Z,28.13
2018-12-06T11:25:00.856Z,23.87
2018-12-06T11:27:28.716Z,23.37
2018-12-06T11:29:56.633Z,25.30
2018-12-06T11:32:24.506Z,29.27
2018-12-06T11:34:52.452Z,31.00
2018-12-06T11:37:20.319Z,27.07
2018-12-06T11:39:48.243Z,28.37
2018-12-06T11:42:16.079Z,27.37
2018-12-06T11:44:43.963Z,32.27
2018-12-06T11:47:11.782Z,30.37
2018-12-06T11:49:39.735Z,31.73
2018-12-06T11:52:07.603Z,37.37
2018-12-06T11:54:35.423Z,38.27
2018-12-06T11:57:03.346Z,40.00
2018-12-06T11:59:31.196Z,31.60
2018-12-06T12:01:59.398Z,38.80
2018-12-06T12:04:27.247Z,32.27
2018-12-06T12:06:55.232Z,40.23
2018-12-06T12:09:23.221Z,42.03
2018-12-06T12:11:51.106Z,43.20
2018-12-06T12:14:18.983Z,39.60
2018-12-06T12:16:46.778Z,38.97
2018-12-06T12:19:14.606Z,37.80
2018-12-06T12:21:42.526Z,43.43
2018-12-06T12:24:10.408Z,33.33
2018-12-06T12:26:38.243Z,40.60
2018-12-06T12:29:06.156Z,40.40
2018-12-06T12:31:34.021Z,43.57
2018-12-06T12:34:01.882Z,39.73
2018-12-06T12:36:29.780Z,38.57
2018-12-06T12:38:57.861Z,39.70
2018-12-06T12:41:25.743Z,44.43
2018-12-06T12:43:53.561Z,41.33
2018-12-06T12:46:21.416Z,40.40
2018-12-06T12:48:49.303Z,40.30
2018-12-06T12:51:17.190Z,40.70
2018-12-06T12:53:45.086Z,38.87
2018-12-06T12:56:12.955Z,36.10
2018-12-06T12:58:40.880Z,36.43
2018-12-06T13:01:08.739Z,34.07
2018-12-06T13:03:36.667Z,39.40
2018-12-06T13:06:04.672Z,44.80
2018-12-06T13:08:32.567Z,44.90
2018-12-06T13:11:00.507Z,44.30
2018-12-06T13:13:28.420Z,49.77
2018-12-06T13:15:56.275Z,42.93
2018-12-06T13:18:24.163Z,45.60
2018-12-06T13:20:52.152Z,40.90
2018-12-06T13:23:20.028Z,46.83
2018-12-06T13:25:47.918Z,48.23
2018-12-06T13:28:15.947Z,40.93
2018-12-06T13:30:43.947Z,41.33
2018-12-06T13:33:11.859Z,44.63
2018-12-06T13:35:39.705Z,47.13
2018-12-06T13:38:07.696Z,36.53
2018-12-06T13:40:35.582Z,39.57
2018-12-06T13:43:03.444Z,36.63
2018-12-06T13:45:31.342Z,41.20
2018-12-06T13:47:59.198Z,43.80
2018-12-06T13:50:27.260Z,42.33
2018-12-06T13:52:55.138Z,39.60
2018-12-06T13:55:22.999Z,37.13
2018-12-06T13:57:50.893Z,46.63
2018-12-06T14:00:18.774Z,40.07
2018-12-06T14:02:46.722Z,44.83
2018-12-06T14:05:14.618Z,38.43
2018-12-06T14:07:42.467Z,38.73
2018-12-06T14:10:10.374Z,39.00
2018-12-06T14:12:38.247Z,31.83
2018-12-06T14:15:06.312Z,32.77
2018-12-06T14:17:34.193Z,33.87
2018-12-06T14:20:02.219Z,29.03
2018-12-06T14:22:30.080Z,29.10
2018-12-06T14:24:57.917Z,27.17
2018-12-06T14:27:25.835Z,23.13
2018-12-06T14:29:53.706Z,24.20
2018-12-06T14:32:21.709Z,28.33
2018-12-06T14:34:49.542Z,28.37
2018-12-06T14:37:17.419Z,27.97
2018-12-06T14:39:45.261Z,31.17
2018-12-06T14:42:13.116Z,25.30
2018-12-06T14:44:41.145Z,25.07
2018-12-06T14:47:08.990Z,21.37
2018-12-06T14:52:11.384Z,21.90
2018-12-06T14:54:39.287Z,22.57
2018-12-06T14:57:07.256Z,17.27
2018-12-06T14:59:35.103Z,19.57
2018-12-06T15:02:03.099Z,20.43
2018-12-06T15:04:30.996Z,16.50
2018-12-06T15:06:58.866Z,19.30
2018-12-06T15:09:26.814Z,22.47
2018-12-06T15:11:54.692Z,20.90
2018-12-06T15:14:22.548Z,22.17
2018-12-06T15:16:50.551Z,19.07
2018-12-06T15:19:18.418Z,21.30
2018-12-06T15:21:46.259Z,24.47
2018-12-06T15:24:14.178Z,23.77
2018-12-06T15:26:42.018Z,21.80
2018-12-06T15:29:09.904Z,21.63
2018-12-06T15:31:37.800Z,21.13
2018-12-06T15:34:05.663Z,20.73
2018-12-06T15:36:33.551Z,26.67
2018-12-06T15:39:01.397Z,23.53
2018-12-06T15:41:29.232Z,23.80
2018-12-06T15:43:57.151Z,22.20
2018-12-06T15:46:24.956Z,22.97
2018-12-06T15:48:52.910Z,27.03
2018-12-06T15:51:20.755Z,22.70
2018-12-06T15:53:48.642Z,23.93
2018-12-06T15:56:16.604Z,24.73
2018-12-06T15:58:44.465Z,23.63
2018-12-06T16:01:12.324Z,25.17
2018-12-06T16:03:40.214Z,23.40
2018-12-06T16:06:08.112Z,22.60
2018-12-06T16:08:35.994Z,23.80
2018-12-06T16:11:03.881Z,27.27
2018-12-06T16:13:31.779Z,26.60
2018-12-06T16:15:59.659Z,26.00
2018-12-06T16:18:27.609Z,24.57
2018-12-06T16:20:55.474Z,21.90
2018-12-06T16:23:23.344Z,22.90
2018-12-06T16:25:51.315Z,23.97
2018-12-06T16:28:19.133Z,23.17
2018-12-06T16:30:47.023Z,23.47
2018-12-06T16:33:15.052Z,23.37
2018-12-06T16:35:42.974Z,25.47
2018-12-06T16:38:10.844Z,23.57
2018-12-06T16:40:38.732Z,21.33
2018-12-06T16:43:06.589Z,23.47
2018-12-06T16:45:34.494Z,25.60
2018-12-06T16:48:02.472Z,25.70
2018-12-06T16:50:30.338Z,26.80
2018-12-06T16:52:58.256Z,26.13
2018-12-06T16:55:26.066Z,22.40
2018-12-06T16:57:53.908Z,23.03
2018-12-06T17:00:21.754Z,26.03
2018-12-06T17:02:49.603Z,26.47
2018-12-06T17:05:17.428Z,29.37
2018-12-06T17:07:45.348Z,27.27
2018-12-06T17:10:13.242Z,30.97
2018-12-06T17:12:41.133Z,24.23
2018-12-06T17:15:09.061Z,28.93
2018-12-06T17:17:36.957Z,30.80
2018-12-06T17:20:06.187Z,32.43
2018-12-06T17:22:34.034Z,38.37
2018-12-06T17:25:01.958Z,32.03
2018-12-06T17:27:29.864Z,37.70
2018-12-06T17:29:57.927Z,34.00
2018-12-06T17:32:25.937Z,34.37
2018-12-06T17:34:53.841Z,32.10
2018-12-06T17:37:21.738Z,34.67
2018-12-06T17:39:49.596Z,33.33
2018-12-06T17:42:17.535Z,29.43
2018-12-06T17:44:45.381Z,32.00
2018-12-06T17:47:13.298Z,31.80
2018-12-06T17:49:41.200Z,31.77
2018-12-06T17:52:09.063Z,30.87
2018-12-06T17:54:36.949Z,28.83
2018-12-06T17:57:05.091Z,36.07
2018-12-06T17:59:32.969Z,36.87
2018-12-06T18:02:00.809Z,34.20
2018-12-06T18:04:28.711Z,29.23
2018-12-06T18:06:56.609Z,35.07
2018-12-06T18:09:24.476Z,33.93
2018-12-06T18:11:52.341Z,36.20
2018-12-06T18:14:20.238Z,28.63
2018-12-06T18:16:48.156Z,32.20
2018-12-06T18:19:16.078Z,31.80
2018-12-06T18:21:43.924Z,33.13
2018-12-06T18:24:18.391Z,28.97
2018-12-06T18:26:41.811Z,36.40
2018-12-06T18:29:09.646Z,39.10
2018-12-06T18:31:37.529Z,36.43
2018-12-06T18:34:05.393Z,38.03
2018-12-06T18:36:33.275Z,33.23
2018-12-06T18:39:01.183Z,33.70
2018-12-06T18:41:29.072Z,35.90
2018-12-06T18:43:56.941Z,33.97
2018-12-06T18:46:24.885Z,31.23
2018-12-06T18:48:52.801Z,34.87
2018-12-06T18:51:20.638Z,33.60
2018-12-06T18:53:48.856Z,30.97
2018-12-06T18:56:17.083Z,26.47
2018-12-06T18:58:44.949Z,29.77
2018-12-06T19:01:12.852Z,28.80
2018-12-06T19:03:40.705Z,27.60
2018-12-06T19:06:08.578Z,24.70
2018-12-06T19:09:05.765Z,25.80
2018-12-06T19:11:33.746Z,25.53
2018-12-06T19:14:01.745Z,25.17
2018-12-06T19:16:29.583Z,25.43
2018-12-06T19:18:57.509Z,28.03
2018-12-06T19:21:25.327Z,28.37
2018-12-06T19:23:53.175Z,28.83
2018-12-06T19:26:21.078Z,26.40
2018-12-06T19:28:48.970Z,26.40
2018-12-06T19:31:16.940Z,31.17
2018-12-06T19:33:44.831Z,27.57
2018-12-06T19:36:12.677Z,26.47
2018-12-06T19:38:40.595Z,27.10
2018-12-06T19:41:08.469Z,33.27
2018-12-06T19:43:36.374Z,30.67
2018-12-06T19:46:04.225Z,28.90
2018-12-06T19:48:32.173Z,24.93
2018-12-06T19:51:00.149Z,29.90
2018-12-06T19:53:28.015Z,29.70
2018-12-06T19:55:55.894Z,26.80
2018-12-06T19:58:23.824Z,25.37
2018-12-06T20:00:52.021Z,28.07
2018-12-06T20:03:19.864Z,25.83
2018-12-06T20:05:47.714Z,24.67
2018-12-06T20:08:15.833Z,25.27
2018-12-06T20:10:43.699Z,29.83
2018-12-06T20:13:11.585Z,30.03
2018-12-06T20:15:39.517Z,25.83
2018-12-06T20:18:07.478Z,28.40
2018-12-06T20:20:35.406Z,26.30
2018-12-06T20:23:03.348Z,26.73
2018-12-06T20:25:31.359Z,25.60
2018-12-06T20:27:59.320Z,25.43
2018-12-06T20:30:27.241Z,28.20
2018-12-06T20:32:55.116Z,26.93
2018-12-06T20:35:23.011Z,25.57
2018-12-06T20:37:51.032Z,24.23
2018-12-06T20:40:18.900Z,25.23
2018-12-06T20:42:46.759Z,26.13
2018-12-06T20:45:14.849Z,28.67
2018-12-06T20:47:42.750Z,24.20
2018-12-06T20:50:10.741Z,24.60
2018-12-06T20:52:38.711Z,27.13
2018-12-06T20:55:06.688Z,29.60
2018-12-06T20:57:37.423Z,27.23
2018-12-06T21:00:05.244Z,24.73
2018-12-06T21:02:33.108Z,22.53
2018-12-06T21:05:00.964Z,24.53
2018-12-06T21:07:28.871Z,24.03
2018-12-06T21:09:56.707Z,23.60
2018-12-06T21:12:24.627Z,23.87
2018-12-06T21:14:52.519Z,22.07
2018-12-06T21:17:20.631Z,23.33
2018-12-06T21:19:48.503Z,24.73
2018-12-06T21:22:16.360Z,26.43
2018-12-06T21:24:44.300Z,26.53
2018-12-06T21:27:12.149Z,23.80
2018-12-06T21:29:40.012Z,23.00
2018-12-06T21:32:07.880Z,25.27
2018-12-06T21:34:35.774Z,24.33
2018-12-06T21:37:03.657Z,34.67
2018-12-06T21:39:31.500Z,25.03
2018-12-06T21:41:59.352Z,26.30
2018-12-06T21:44:27.340Z,25.17
2018-12-06T21:46:55.191Z,24.80
2018-12-06T21:49:23.039Z,23.80
2018-12-06T21:51:50.939Z,25.73
2018-12-06T21:54:18.804Z,28.77
2018-12-06T21:56:46.666Z,25.77
2018-12-06T21:59:14.561Z,26.73
2018-12-06T22:01:42.450Z,25.40
2018-12-06T22:04:10.338Z,24.03
2018-12-06T22:06:38.429Z,28.73
2018-12-06T22:09:07.075Z,25.03
2018-12-06T22:11:34.980Z,23.53
2018-12-06T22:14:02.880Z,25.90
2018-12-06T22:16:30.699Z,26.43
2018-12-06T22:18:58.580Z,25.83
2018-12-06T22:21:26.391Z,26.00
2018-12-06T22:23:54.340Z,22.97
2018-12-06T22:26:22.214Z,27.60
2018-12-06T22:28:50.056Z,25.97
2018-12-06T22:31:18.074Z,28.80
2018-12-06T22:33:45.926Z,23.27
2018-12-06T22:36:13.731Z,25.23
2018-12-06T22:38:41.763Z,27.93
2018-12-06T22:41:09.619Z,27.60
2018-12-06T22:43:37.464Z,26.40
2018-12-06T22:46:05.459Z,27.20
2018-12-06T22:48:33.296Z,29.70
2018-12-06T22:51:01.163Z,28.80
2018-12-06T22:53:29.080Z,27.07
2018-12-06T22:55:56.939Z,29.57
2018-12-06T22:58:24.805Z,27.50
2018-12-06T23:00:56.557Z,29.97
2018-12-06T23:03:24.640Z,27.60
2018-12-06T23:05:53.465Z,25.63
2018-12-06T23:08:21.394Z,26.73
2018-12-06T23:10:49.279Z,26.00
2018-12-06T23:13:17.135Z,30.50
2018-12-06T23:15:45.079Z,23.63
2018-12-06T23:18:12.977Z,24.27
2018-12-06T23:20:40.791Z,27.67
2018-12-06T23:23:08.751Z,27.13
2018-12-06T23:25:36.602Z,26.67
2018-12-06T23:28:04.594Z,24.83
2018-12-06T23:30:32.507Z,25.07
2018-12-06T23:33:00.432Z,28.27
2018-12-06T23:35:28.326Z,24.77
2018-12-06T23:37:56.188Z,32.17
2018-12-06T23:40:24.059Z,26.40
2018-12-06T23:42:51.922Z,22.93
2018-12-06T23:45:19.776Z,24.07
2018-12-06T23:47:47.595Z,27.03
2018-12-06T23:50:15.497Z,25.97
2018-12-06T23:52:43.337Z,21.20
2018-12-06T23:55:11.325Z,21.37
2018-12-06T23:57:39.122Z,21.53
